Time,TemperatureF,DewpointF,PressureIn,WindDirection,WindDirectionDegrees,WindSpeedMPH,WindSpeedGustMPH,Humidity,HourlyPrecipIn,Conditions,Clouds,dailyrainin,SoftwareType,DateUTC
2013-07-27 00:12:00,71.0,62.0,-100.00,SW,230,2.0,3.0,73,0.00,,,-99.99,,2013-07-27 04:12:00,
2013-07-27 00:22:00,71.0,62.0,-100.00,SW,225,10.0,14.0,74,0.00,,,-99.99,,2013-07-27 04:22:00,
2013-07-27 00:32:00,71.0,64.0,-100.00,WSW,255,9.0,14.0,78,2.24,,,-99.99,,2013-07-27 04:32:00,
2013-07-27 00:43:00,68.0,65.0,-100.00,SW,230,6.0,11.0,90,3.94,,,-99.99,,2013-07-27 04:43:00,
2013-07-27 01:12:00,67.0,66.0,-100.00,SW,235,4.0,6.0,96,0.00,,,-99.99,,2013-07-27 05:12:00,
2013-07-27 01:22:00,67.0,66.0,-100.00,WSW,245,2.0,5.0,97,0.55,,,-99.99,,2013-07-27 05:22:00,
2013-07-27 01:32:00,67.0,66.0,-100.00,SW,235,2.0,4.0,97,0.00,,,-99.99,,2013-07-27 05:32:00,
2013-07-27 01:43:00,67.0,66.0,-100.00,SSW,205,2.0,4.0,98,0.00,,,-99.99,,2013-07-27 05:43:00,
2013-07-27 02:12:00,66.0,66.0,-100.00,SSE,165,2.0,4.0,99,0.00,,,-99.99,,2013-07-27 06:12:00,
2013-07-27 02:22:00,66.0,66.0,-100.00,SE,125,1.0,2.0,99,0.00,,,-99.99,,2013-07-27 06:22:00,
2013-07-27 02:33:00,66.0,66.0,-100.00,SE,135,1.0,3.0,99,0.00,,,-99.99,,2013-07-27 06:33:00,
2013-07-27 02:43:00,66.0,66.0,-100.00,SE,135,2.0,4.0,99,0.00,,,-99.99,,2013-07-27 06:43:00,
2013-07-27 03:02:00,66.0,66.0,-100.00,SSE,160,2.0,4.0,99,0.00,,,-99.99,,2013-07-27 07:02:00,
2013-07-27 03:52:00,66.0,66.0,-100.00,SSE,160,1.0,4.0,99,0.00,,,-99.99,,2013-07-27 07:52:00,
2013-07-27 04:02:00,66.0,66.0,-100.00,SE,145,2.0,4.0,99,0.00,,,-99.99,,2013-07-27 08:02:00,
2013-07-27 04:12:00,66.0,66.0,-100.00,South,175,2.0,4.0,99,0.00,,,-99.99,,2013-07-27 08:12:00,
2013-07-27 04:22:00,66.0,66.0,-100.00,South,175,1.0,4.0,99,0.00,,,-99.99,,2013-07-27 08:22:00,
2013-07-27 04:32:00,66.0,66.0,-100.00,SE,145,2.0,4.0,99,0.00,,,-99.99,,2013-07-27 08:32:00,
2013-07-27 04:43:00,66.0,66.0,-100.00,SSE,160,2.0,4.0,99,0.00,,,-99.99,,2013-07-27 08:43:00,
2013-07-27 04:53:00,66.0,66.0,-100.00,SSE,165,2.0,4.0,99,0.00,,,-99.99,,2013-07-27 08:53:00,
2013-07-27 05:02:00,66.0,66.0,-100.00,SE,140,2.0,4.0,99,0.00,,,-99.99,,2013-07-27 09:02:00,
2013-07-27 05:12:00,66.0,66.0,-100.00,SE,145,2.0,6.0,99,0.00,,,-99.99,,2013-07-27 09:12:00,
2013-07-27 05:22:00,66.0,66.0,-100.00,SE,135,2.0,4.0,99,0.00,,,-99.99,,2013-07-27 09:22:00,
2013-07-27 05:33:00,66.0,66.0,-100.00,SE,140,2.0,4.0,99,0.00,,,-99.99,,2013-07-27 09:33:00,
2013-07-27 05:44:00,66.0,66.0,-100.00,South,180,2.0,5.0,99,0.00,,,-99.99,,2013-07-27 09:44:00,
2013-07-27 05:52:00,66.0,66.0,-100.00,South,185,2.0,4.0,99,0.00,,,-99.99,,2013-07-27 09:52:00,
2013-07-27 06:02:00,66.0,66.0,-100.00,South,170,3.0,5.0,99,0.00,,,-99.99,,2013-07-27 10:02:00,
2013-07-27 06:12:00,66.0,66.0,-100.00,South,170,3.0,5.0,99,0.00,,,-99.99,,2013-07-27 10:12:00,
2013-07-27 06:22:00,66.0,66.0,-100.00,South,170,3.0,5.0,99,0.00,,,-99.99,,2013-07-27 10:22:00,
2013-07-27 06:32:00,66.0,66.0,-100.00,SSE,150,2.0,4.0,99,0.00,,,-99.99,,2013-07-27 10:32:00,
2013-07-27 06:52:00,66.0,66.0,-100.00,SSE,150,2.0,4.0,99,0.00,,,-99.99,,2013-07-27 10:52:00,
2013-07-27 07:52:00,66.0,66.0,-100.00,South,175,2.0,4.0,99,0.00,,,-99.99,,2013-07-27 11:52:00,
2013-07-27 08:03:00,66.0,66.0,-100.00,South,175,2.0,4.0,99,0.00,,,-99.99,,2013-07-27 12:03:00,
2013-07-27 08:43:00,67.0,67.0,-100.00,SSE,155,2.0,5.0,99,0.00,,,-99.99,,2013-07-27 12:43:00,
2013-07-27 08:52:00,67.0,67.0,-100.00,SE,145,4.0,6.0,99,0.00,,,-99.99,,2013-07-27 12:52:00,
2013-07-27 09:02:00,67.0,67.0,-100.00,SSE,150,3.0,7.0,99,0.00,,,-99.99,,2013-07-27 13:02:00,
2013-07-27 09:12:00,67.0,67.0,-100.00,SSE,150,3.0,7.0,99,0.00,,,-99.99,,2013-07-27 13:12:00,
2013-07-27 09:22:00,68.0,68.0,-100.00,South,180,2.0,6.0,99,0.00,,,-99.99,,2013-07-27 13:22:00,
2013-07-27 09:32:00,68.0,68.0,-100.00,South,180,2.0,6.0,99,0.00,,,-99.99,,2013-07-27 13:32:00,
2013-07-27 09:44:00,68.0,68.0,-100.00,SSW,200,4.0,7.0,99,0.00,,,-99.99,,2013-07-27 13:44:00,
2013-07-27 10:12:00,69.0,69.0,-100.00,SSW,195,4.0,8.0,97,0.00,,,-99.99,,2013-07-27 14:12:00,
2013-07-27 10:22:00,70.0,69.0,-100.00,SSW,210,5.0,7.0,96,0.00,,,-99.99,,2013-07-27 14:22:00,
2013-07-27 10:32:00,70.0,69.0,-100.00,SW,235,6.0,9.0,95,0.00,,,-99.99,,2013-07-27 14:32:00,
2013-07-27 10:44:00,71.0,69.0,-100.00,SSW,210,4.0,9.0,94,0.00,,,-99.99,,2013-07-27 14:44:00,
2013-07-27 11:33:00,73.0,69.0,-100.00,SW,230,5.0,7.0,86,0.00,,,-99.99,,2013-07-27 15:33:00,
2013-07-27 11:44:00,73.0,69.0,-100.00,SSW,195,4.0,7.0,85,0.00,,,-99.99,,2013-07-27 15:44:00,
2013-07-27 11:53:00,74.0,68.0,-100.00,SW,225,7.0,9.0,81,0.00,,,-99.99,,2013-07-27 15:53:00,
2013-07-27 12:02:00,75.0,68.0,-100.00,SSW,205,8.0,11.0,79,0.00,,,-99.99,,2013-07-27 16:02:00,
2013-07-27 12:12:00,75.0,67.0,-100.00,SSW,210,6.0,9.0,77,0.00,,,-99.99,,2013-07-27 16:12:00,
2013-07-27 12:33:00,76.0,67.0,-100.00,WSW,245,6.0,11.0,74,0.00,,,-99.99,,2013-07-27 16:33:00,
2013-07-27 12:43:00,75.0,66.0,-100.00,WSW,250,7.0,10.0,73,0.00,,,-99.99,,2013-07-27 16:43:00,
2013-07-27 12:53:00,76.0,66.0,-100.00,West,270,6.0,10.0,72,0.00,,,-99.99,,2013-07-27 16:53:00,
2013-07-27 13:02:00,75.0,65.0,-100.00,WSW,250,7.0,15.0,70,0.00,,,-99.99,,2013-07-27 17:02:00,
2013-07-27 13:12:00,76.0,66.0,-100.00,SW,215,6.0,9.0,71,0.00,,,-99.99,,2013-07-27 17:12:00,
2013-07-27 13:22:00,77.0,66.0,-100.00,SW,220,5.0,9.0,68,0.00,,,-99.99,,2013-07-27 17:22:00,
2013-07-27 13:32:00,77.0,65.0,-100.00,WSW,255,7.0,13.0,65,0.00,,,-99.99,,2013-07-27 17:32:00,
2013-07-27 13:43:00,78.0,64.0,-100.00,WSW,245,7.0,11.0,62,0.00,,,-99.99,,2013-07-27 17:43:00,
2013-07-27 13:53:00,78.0,65.0,-100.00,West,260,7.0,12.0,64,0.00,,,-99.99,,2013-07-27 17:53:00,
2013-07-27 14:03:00,77.0,63.0,-100.00,West,280,6.0,13.0,61,0.00,,,-99.99,,2013-07-27 18:03:00,
2013-07-27 14:12:00,78.0,63.0,-100.00,WSW,255,9.0,13.0,61,0.00,,,-99.99,,2013-07-27 18:12:00,
2013-07-27 14:22:00,76.0,64.0,-100.00,West,275,11.0,16.0,65,0.00,,,-99.99,,2013-07-27 18:22:00,
2013-07-27 14:33:00,77.0,63.0,-100.00,WSW,255,10.0,20.0,61,0.00,,,-99.99,,2013-07-27 18:33:00,
2013-07-27 14:43:00,78.0,62.0,-100.00,WSW,250,13.0,19.0,58,0.00,,,-99.99,,2013-07-27 18:43:00,
2013-07-27 14:53:00,78.0,61.0,-100.00,West,265,12.0,17.0,56,0.00,,,-99.99,,2013-07-27 18:53:00,
2013-07-27 15:02:00,78.0,59.0,-100.00,WSW,240,11.0,17.0,52,0.00,,,-99.99,,2013-07-27 19:02:00,
2013-07-27 15:12:00,79.0,60.0,-100.00,WSW,245,9.0,17.0,53,0.00,,,-99.99,,2013-07-27 19:12:00,
2013-07-27 15:23:00,79.0,60.0,-100.00,West,260,11.0,18.0,52,0.00,,,-99.99,,2013-07-27 19:23:00,
2013-07-27 15:32:00,80.0,61.0,-100.00,SW,230,9.0,18.0,53,0.00,,,-99.99,,2013-07-27 19:32:00,
2013-07-27 15:43:00,79.0,59.0,-100.00,WSW,250,11.0,17.0,50,0.00,,,-99.99,,2013-07-27 19:43:00,
2013-07-27 15:53:00,79.0,58.0,-100.00,WSW,245,8.0,18.0,49,0.00,,,-99.99,,2013-07-27 19:53:00,
2013-07-27 16:02:00,76.0,61.0,-100.00,West,260,14.0,21.0,59,0.00,,,-99.99,,2013-07-27 20:02:00,
2013-07-27 16:12:00,75.0,62.0,-100.00,West,270,17.0,24.0,63,0.00,,,-99.99,,2013-07-27 20:12:00,
2013-07-27 16:23:00,75.0,61.0,-100.00,West,265,14.0,25.0,63,0.00,,,-99.99,,2013-07-27 20:23:00,
2013-07-27 16:32:00,75.0,62.0,-100.00,West,280,12.0,19.0,63,0.00,,,-99.99,,2013-07-27 20:32:00,
2013-07-27 16:43:00,74.0,62.0,-100.00,West,280,12.0,16.0,64,0.00,,,-99.99,,2013-07-27 20:43:00,
2013-07-27 16:52:00,75.0,61.0,-100.00,West,270,12.0,17.0,62,0.00,,,-99.99,,2013-07-27 20:52:00,
2013-07-27 17:03:00,74.0,62.0,-100.00,West,265,11.0,17.0,63,0.00,,,-99.99,,2013-07-27 21:03:00,
2013-07-27 17:12:00,73.0,60.0,-100.00,WNW,290,12.0,19.0,65,0.00,,,-99.99,,2013-07-27 21:12:00,
2013-07-27 17:23:00,74.0,62.0,-100.00,West,265,12.0,16.0,66,0.00,,,-99.99,,2013-07-27 21:23:00,
2013-07-27 17:33:00,71.0,60.0,-100.00,WNW,285,13.0,23.0,68,0.00,,,-99.99,,2013-07-27 21:33:00,
2013-07-27 17:43:00,71.0,60.0,-100.00,West,265,11.0,18.0,70,0.00,,,-99.99,,2013-07-27 21:43:00,
2013-07-27 17:52:00,72.0,62.0,-100.00,West,275,12.0,19.0,71,0.00,,,-99.99,,2013-07-27 21:52:00,
2013-07-27 18:02:00,69.0,61.0,-100.00,West,275,16.0,21.0,74,0.00,,,-99.99,,2013-07-27 22:02:00,
2013-07-27 18:12:00,69.0,60.0,-100.00,WNW,285,17.0,23.0,72,0.00,,,-99.99,,2013-07-27 22:12:00,
2013-07-27 18:22:00,69.0,61.0,-100.00,WNW,295,10.0,24.0,76,0.00,,,-99.99,,2013-07-27 22:22:00,
2013-07-27 18:33:00,68.0,61.0,-100.00,NW,305,11.0,17.0,77,0.00,,,-99.99,,2013-07-27 22:33:00,
2013-07-27 18:43:00,68.0,61.0,-100.00,NW,305,11.0,17.0,78,0.00,,,-99.99,,2013-07-27 22:43:00,
2013-07-27 18:53:00,67.0,60.0,-100.00,WNW,290,12.0,19.0,78,0.00,,,-99.99,,2013-07-27 22:53:00,
2013-07-27 19:02:00,66.0,59.0,-100.00,West,280,14.0,22.0,77,0.00,,,-99.99,,2013-07-27 23:02:00,
2013-07-27 19:12:00,66.0,59.0,-100.00,WNW,295,10.0,19.0,77,0.00,,,-99.99,,2013-07-27 23:12:00,
2013-07-27 19:22:00,67.0,58.0,-100.00,WNW,300,14.0,21.0,74,0.00,,,-99.99,,2013-07-27 23:22:00,
2013-07-27 19:32:00,66.0,58.0,-100.00,WNW,290,14.0,24.0,75,0.00,,,-99.99,,2013-07-27 23:32:00,
2013-07-27 19:44:00,65.0,58.0,-100.00,NW,310,7.0,19.0,78,0.00,,,-99.99,,2013-07-27 23:44:00,
2013-07-27 19:52:00,64.0,58.0,-100.00,NW,305,10.0,15.0,79,0.00,,,-99.99,,2013-07-27 23:52:00,
2013-07-27 20:02:00,64.0,58.0,-100.00,NW,315,7.0,15.0,80,0.00,,,-99.99,,2013-07-28 00:02:00,
2013-07-27 20:12:00,64.0,57.0,-100.00,NW,310,10.0,14.0,80,0.00,,,-99.99,,2013-07-28 00:12:00,
2013-07-27 20:22:00,64.0,57.0,-100.00,WNW,300,9.0,13.0,79,0.00,,,-99.99,,2013-07-28 00:22:00,
2013-07-27 20:32:00,63.0,57.0,-100.00,WNW,290,6.0,12.0,81,0.00,,,-99.99,,2013-07-28 00:32:00,
2013-07-27 20:44:00,63.0,57.0,-100.00,WNW,285,6.0,11.0,80,0.00,,,-99.99,,2013-07-28 00:44:00,
2013-07-27 20:53:00,62.0,56.0,-100.00,WNW,290,6.0,12.0,80,0.00,,,-99.99,,2013-07-28 00:53:00,
2013-07-27 21:02:00,62.0,56.0,-100.00,West,275,10.0,13.0,80,0.00,,,-99.99,,2013-07-28 01:02:00,
2013-07-27 21:12:00,62.0,56.0,-100.00,WNW,300,6.0,12.0,80,0.00,,,-99.99,,2013-07-28 01:12:00,
2013-07-27 21:22:00,62.0,56.0,-100.00,WNW,295,5.0,12.0,81,0.00,,,-99.99,,2013-07-28 01:22:00,
2013-07-27 21:32:00,61.0,55.0,-100.00,WNW,295,7.0,13.0,80,0.00,,,-99.99,,2013-07-28 01:32:00,
2013-07-27 21:43:00,60.0,55.0,-100.00,WNW,290,4.0,8.0,83,0.00,,,-99.99,,2013-07-28 01:43:00,
2013-07-27 21:53:00,60.0,55.0,-100.00,WNW,285,4.0,11.0,85,0.00,,,-99.99,,2013-07-28 01:53:00,
2013-07-27 22:03:00,59.0,55.0,-100.00,West,275,3.0,5.0,87,0.00,,,-99.99,,2013-07-28 02:03:00,
2013-07-27 22:12:00,58.0,56.0,-100.00,West,270,5.0,6.0,90,0.00,,,-99.99,,2013-07-28 02:12:00,
2013-07-27 22:22:00,58.0,55.0,-100.00,West,270,3.0,6.0,92,0.00,,,-99.99,,2013-07-28 02:22:00,
2013-07-27 22:32:00,57.0,55.0,-100.00,SW,235,2.0,4.0,93,0.00,,,-99.99,,2013-07-28 02:32:00,
2013-07-27 22:42:00,57.0,56.0,-100.00,WSW,245,3.0,5.0,93,0.00,,,-99.99,,2013-07-28 02:42:00,
2013-07-27 22:53:00,57.0,55.0,-100.00,WSW,245,2.0,4.0,94,0.00,,,-99.99,,2013-07-28 02:53:00,
2013-07-27 23:03:00,57.0,55.0,-100.00,West,265,1.0,3.0,94,0.00,,,-99.99,,2013-07-28 03:03:00,
2013-07-27 23:12:00,57.0,55.0,-100.00,SW,235,3.0,4.0,95,0.00,,,-99.99,,2013-07-28 03:12:00,
2013-07-27 23:22:00,56.0,55.0,-100.00,WSW,240,3.0,4.0,95,0.00,,,-99.99,,2013-07-28 03:22:00,
2013-07-27 23:32:00,56.0,55.0,-100.00,SW,235,3.0,4.0,96,0.00,,,-99.99,,2013-07-28 03:32:00,
2013-07-27 23:42:00,56.0,55.0,-100.00,SW,220,3.0,5.0,96,0.00,,,-99.99,,2013-07-28 03:42:00,
2013-07-27 23:53:00,56.0,56.0,-100.00,WSW,240,3.0,4.0,96,0.00,,,-99.99,,2013-07-28 03:53:00,